Time;durP1;ratioP1;P1;durP2;ratioP2;P2;SDS_P1;SDS_P2;PMS_P1;PMS_P2;Temp;Humidity;BMP_temperature;BMP_pressure;BME280_temperature;BME280_humidity;BME280_pressure;Samples;Min_cycle;Max_cycle;Signal;HPM_P1;HPM_P2
2022/10/05 00:01:58;;;;;;;13.43;9.13;;;;;;;13.15;100.00;101769.13;5012590;28;20030;-75
2022/10/05 00:04:27;;;;;;;15.80;9.07;;;;;;;13.14;100.00;101768.22;5011364;28;20049;-75
2022/10/05 00:07:11;;;;;;;12.45;8.88;;;;;;;13.16;100.00;101766.47;5012964;28;20371;-75
2022/10/05 00:09:36;;;;;;;14.77;9.45;;;;;;;13.09;100.00;101755.25;5014069;28;20041;-75
2022/10/05 00:12:16;;;;;;;14.80;10.35;;;;;;;13.11;100.00;101757.81;5013451;28;20045;-75
2022/10/05 00:14:42;;;;;;;14.43;8.88;;;;;;;13.12;100.00;101759.56;5013053;28;20072;-75
2022/10/05 00:17:19;;;;;;;12.43;8.80;;;;;;;13.12;100.00;101764.81;5014048;28;20466;-74
2022/10/05 00:19:50;;;;;;;13.50;9.10;;;;;;;13.06;100.00;101752.69;5012494;28;20042;-75
2022/10/05 00:22:18;;;;;;;13.27;8.73;;;;;;;13.09;100.00;101757.00;5013091;28;20018;-75
2022/10/05 00:24:44;;;;;;;14.38;9.18;;;;;;;13.10;100.00;101753.47;5013190;28;20034;-75
2022/10/05 00:27:20;;;;;;;14.57;9.13;;;;;;;13.08;100.00;101744.81;5009495;28;20498;-75
2022/10/05 00:29:47;;;;;;;12.63;9.18;;;;;;;13.06;100.00;101743.97;5014105;28;20109;-75
2022/10/05 00:32:13;;;;;;;12.75;9.25;;;;;;;13.06;100.00;101750.06;5013279;28;20034;-75
2022/10/05 00:34:38;;;;;;;14.52;9.60;;;;;;;13.06;100.00;101746.59;5012601;28;20025;-74
2022/10/05 00:37:04;;;;;;;15.18;9.95;;;;;;;13.06;100.00;101747.44;5013564;28;20025;-74
2022/10/05 00:39:31;;;;;;;11.88;8.85;;;;;;;13.05;100.00;101752.72;5011845;28;20489;-75
2022/10/05 00:42:22;;;;;;;13.43;9.43;;;;;;;13.04;100.00;101746.59;5013082;28;20022;-75
2022/10/05 00:45:00;;;;;;;20.08;9.40;;;;;;;13.03;100.00;101741.41;5013931;28;20026;-74
2022/10/05 00:47:31;;;;;;;13.43;9.30;;;;;;;13.04;100.00;101743.13;5010636;28;20050;-75
2022/10/05 00:50:17;;;;;;;14.25;9.82;;;;;;;13.04;100.00;101748.34;5012882;28;20076;-75
2022/10/05 00:52:52;;;;;;;13.90;9.07;;;;;;;13.00;100.00;101746.69;5013478;28;20026;-75
2022/10/05 00:55:36;;;;;;;14.98;9.60;;;;;;;12.98;100.00;101743.25;5012457;28;20380;-75
2022/10/05 00:58:28;;;;;;;14.15;9.35;;;;;;;12.99;100.00;101742.38;5012564;28;20026;-75
2022/10/05 01:01:15;;;;;;;11.85;9.43;;;;;;;13.00;100.00;101744.94;5002404;28;20072;-75
2022/10/05 01:04:05;;;;;;;15.60;9.27;;;;;;;12.96;100.00;101735.44;5010430;28;20120;-75
2022/10/05 01:06:54;;;;;;;15.27;9.68;;;;;;;12.95;100.00;101727.59;5013074;28;20022;-74
2022/10/05 01:09:37;;;;;;;12.93;9.63;;;;;;;12.92;100.00;101732.91;5002042;28;20026;-74
2022/10/05 01:12:35;;;;;;;14.77;10.68;;;;;;;12.98;100.00;101738.00;5013410;28;20487;-75
2022/10/05 01:15:10;;;;;;;14.30;9.82;;;;;;;12.84;100.00;101710.34;5013315;28;20058;-74
2022/10/05 01:17:51;;;;;;;13.40;8.63;;;;;;;12.94;100.00;101725.88;5011838;28;20033;-75
2022/10/05 01:20:41;;;;;;;13.20;9.18;;;;;;;12.93;100.00;101713.69;5013138;28;20038;-74
2022/10/05 01:23:23;;;;;;;16.80;9.82;;;;;;;12.93;100.00;101713.69;5013058;28;20084;-75
2022/10/05 01:26:06;;;;;;;15.13;9.45;;;;;;;12.92;100.00;101720.69;5011712;28;20038;-75
2022/10/05 01:29:10;;;;;;;15.03;10.07;;;;;;;12.92;100.00;101712.84;5001154;28;20029;-74
2022/10/05 01:31:46;;;;;;;19.83;9.52;;;;;;;12.86;100.00;101698.09;4989692;28;20042;-74
2022/10/05 01:34:21;;;;;;;10.95;9.57;;;;;;;12.90;100.00;101704.13;5012344;28;20057;-74
2022/10/05 01:37:18;;;;;;;14.45;9.82;;;;;;;12.88;100.00;101706.81;5000024;28;20103;-75
2022/10/05 01:40:05;;;;;;;15.82;9.23;;;;;;;12.91;100.00;101710.22;5012017;28;20037;-75
2022/10/05 01:42:56;;;;;;;14.32;10.20;;;;;;;12.89;100.00;101702.44;5012264;28;20026;-75
2022/10/05 01:45:35;;;;;;;13.38;9.80;;;;;;;12.90;100.00;101704.13;4998557;28;20036;-75
2022/10/05 01:48:16;;;;;;;17.35;10.43;;;;;;;12.87;100.00;101699.81;5011871;28;20104;-75
2022/10/05 01:50:50;;;;;;;16.92;9.90;;;;;;;12.89;100.00;101697.19;5012143;28;20026;-75
2022/10/05 01:53:24;;;;;;;13.45;9.75;;;;;;;12.89;100.00;101698.03;5012034;28;20479;-75
2022/10/05 01:56:08;;;;;;;15.52;9.55;;;;;;;12.81;100.00;101673.75;5012855;28;20034;-74
2022/10/05 01:59:06;;;;;;;17.02;9.73;;;;;;;12.89;100.00;101679.72;5008826;28;20033;-75
2022/10/05 02:01:49;;;;;;;15.45;9.68;;;;;;;12.87;100.00;101678.88;4979123;28;20513;-74
2022/10/05 02:04:22;;;;;;;15.23;9.82;;;;;;;12.88;100.00;101680.63;5001048;28;20018;-75
2022/10/05 02:06:50;;;;;;;18.35;9.73;;;;;;;12.86;100.00;101666.69;5011522;28;20084;-74
2022/10/05 02:09:21;;;;;;;11.77;9.80;;;;;;;12.86;100.00;101671.94;5012359;28;20381;-75
2022/10/05 02:12:01;;;;;;;14.93;9.68;;;;;;;12.86;100.00;101669.31;5011988;28;20388;-75
2022/10/05 02:14:35;;;;;;;13.63;10.00;;;;;;;12.81;100.00;101658.06;5011454;28;20042;-74
2022/10/05 02:17:05;;;;;;;18.92;8.88;;;;;;;12.83;100.00;101660.66;4997595;28;20482;-75
2022/10/05 02:19:36;;;;;;;13.68;9.05;;;;;;;12.86;100.00;101665.84;5010514;28;20052;-75
2022/10/05 02:22:27;;;;;;;14.25;9.38;;;;;;;12.86;100.00;101658.84;5012104;28;20062;-75
2022/10/05 02:25:04;;;;;;;15.20;9.00;;;;;;;12.87;100.00;101657.09;5011797;28;20029;-75
2022/10/05 02:27:37;;;;;;;10.20;8.85;;;;;;;12.85;100.00;101657.13;5010662;28;20057;-75
2022/10/05 02:30:05;;;;;;;12.48;8.93;;;;;;;12.87;100.00;101652.72;4997920;28;20030;-74
2022/10/05 02:32:41;;;;;;;19.08;9.43;;;;;;;12.86;100.00;101644.91;5011453;28;20088;-75
2022/10/05 02:35:16;;;;;;;11.32;8.35;;;;;;;12.88;100.00;101649.22;5010456;28;20406;-75
2022/10/05 02:37:49;;;;;;;11.50;8.52;;;;;;;12.87;100.00;101652.72;5007452;28;20478;-74
2022/10/05 02:40:36;;;;;;;13.40;8.75;;;;;;;12.88;100.00;101641.38;5011576;28;20121;-74
2022/10/05 02:43:13;;;;;;;12.73;7.93;;;;;;;12.85;100.00;101636.19;5008761;28;20034;-74
2022/10/05 02:45:59;;;;;;;10.55;8.18;;;;;;;12.82;100.00;101633.66;5011991;28;20032;-74
2022/10/05 02:48:57;;;;;;;12.35;9.10;;;;;;;12.83;100.00;101626.66;4990889;28;20505;-74
2022/10/05 02:51:45;;;;;;;10.70;7.70;;;;;;;12.69;100.00;101608.63;4995770;28;20018;-74
2022/10/05 02:54:26;;;;;;;11.75;8.32;;;;;;;12.76;100.00;101630.28;5011712;28;20092;-74
2022/10/05 02:57:15;;;;;;;13.18;8.25;;;;;;;12.74;100.00;101625.06;4999917;28;20093;-75
2022/10/05 02:59:50;;;;;;;12.40;8.52;;;;;;;12.72;100.00;101629.50;4993316;28;20200;-75
2022/10/05 03:02:32;;;;;;;10.93;8.15;;;;;;;12.71;100.00;101622.50;5011307;28;20025;-74
2022/10/05 03:05:20;;;;;;;12.20;7.97;;;;;;;12.69;100.00;101619.09;5011356;28;20093;-75
2022/10/05 03:08:00;;;;;;;13.10;8.30;;;;;;;12.64;100.00;101616.53;5004723;28;20034;-74
2022/10/05 03:10:38;;;;;;;11.57;8.05;;;;;;;12.61;100.00;101607.91;5010826;28;20054;-74
2022/10/05 03:13:41;;;;;;;17.50;9.10;;;;;;;12.60;100.00;101607.03;4997698;28;20093;-74
2022/10/05 03:16:15;;;;;;;13.48;8.73;;;;;;;12.59;100.00;101604.47;4999634;28;20045;-75
2022/10/05 03:18:52;;;;;;;13.40;9.02;;;;;;;12.59;100.00;101607.94;5008628;28;20029;-74
2022/10/05 03:21:49;;;;;;;13.43;9.05;;;;;;;12.58;100.00;101598.34;5010749;28;20038;-74
2022/10/05 03:24:14;;;;;;;10.10;8.50;;;;;;;12.56;100.00;101597.53;4999452;28;20022;-74
2022/10/05 03:27:01;;;;;;;12.63;8.65;;;;;;;12.57;100.00;101601.00;5010774;28;20042;-74
2022/10/05 03:29:46;;;;;;;13.98;8.40;;;;;;;12.56;100.00;101599.28;5011006;28;20065;-75
2022/10/05 03:32:38;;;;;;;13.23;8.50;;;;;;;12.56;100.00;101602.78;5014026;28;20049;-75
2022/10/05 03:35:36;;;;;;;11.88;8.65;;;;;;;12.57;100.00;101601.00;5014538;28;20029;-75
2022/10/05 03:38:12;;;;;;;13.45;8.73;;;;;;;12.57;100.00;101601.88;4925022;28;20044;-75
2022/10/05 03:40:57;;;;;;;12.65;9.60;;;;;;;12.58;100.00;101600.97;5011504;28;20037;-75
2022/10/05 03:44:00;;;;;;;12.07;8.20;;;;;;;12.59;100.00;101594.00;5013438;28;20068;-74
2022/10/05 03:46:43;;;;;;;12.63;8.50;;;;;;;12.55;100.00;101589.69;5002184;28;20044;-75
2022/10/05 03:49:44;;;;;;;12.80;8.65;;;;;;;12.54;100.00;101582.75;5011181;28;20113;-75
2022/10/05 03:52:22;;;;;;;13.38;8.90;;;;;;;12.62;100.00;101591.31;5014188;28;20471;-75
2022/10/05 03:54:49;;;;;;;14.68;9.88;;;;;;;12.65;100.00;101601.69;5013371;28;20385;-75
2022/10/05 03:57:22;;;;;;;13.48;9.18;;;;;;;12.64;100.00;101602.59;5014689;28;20057;-75
2022/10/05 03:59:54;;;;;;;16.60;9.35;;;;;;;12.66;100.00;101608.69;5013934;28;20033;-75
2022/10/05 04:02:31;;;;;;;15.55;9.32;;;;;;;12.64;100.00;101594.75;5014613;28;20038;-75
2022/10/05 04:05:01;;;;;;;15.68;8.80;;;;;;;12.71;100.00;101604.19;5012836;28;20109;-75
2022/10/05 04:07:34;;;;;;;15.32;9.68;;;;;;;12.72;100.00;101608.56;5013586;28;20470;-75
2022/10/05 04:10:02;;;;;;;17.67;9.85;;;;;;;12.68;100.00;101595.56;5014356;28;20028;-75
2022/10/05 04:12:39;;;;;;;16.13;9.88;;;;;;;12.73;100.00;101607.66;5013085;28;20385;-75
2022/10/05 04:15:17;;;;;;;17.05;10.25;;;;;;;12.73;100.00;101605.03;5013251;28;20037;-75
2022/10/05 04:17:47;;;;;;;18.55;9.50;;;;;;;12.70;100.00;101594.63;5014374;28;20034;-75
2022/10/05 04:20:28;;;;;;;14.15;10.05;;;;;;;12.73;100.00;101607.66;5012785;28;20554;-74
2022/10/05 04:23:08;;;;;;;16.90;10.02;;;;;;;12.73;100.00;101605.03;5010346;28;20045;-75
2022/10/05 04:25:42;;;;;;;14.75;10.18;;;;;;;12.71;100.00;101604.19;5009636;28;20037;-74
2022/10/05 04:28:10;;;;;;;;;;;;;;;12.74;100.00;101606.75;5014076;28;20026;-75
2022/10/05 04:30:40;;;;;;;14.60;9.60;;;;;;;12.72;100.00;101603.31;5013154;28;20004;-75
2022/10/05 04:33:11;;;;;;;13.13;9.77;;;;;;;12.71;100.00;101598.13;5013830;28;20030;-75
2022/10/05 04:36:03;;;;;;;14.32;10.05;;;;;;;12.71;100.00;101598.13;5011672;28;20033;-75
2022/10/05 04:38:58;;;;;;;14.63;9.55;;;;;;;12.71;100.00;101596.34;5013074;28;20022;-75
2022/10/05 04:41:53;;;;;;;14.77;9.60;;;;;;;12.72;100.00;101585.00;5004943;28;20493;-75
2022/10/05 04:44:34;;;;;;;13.50;8.98;;;;;;;12.67;100.00;101581.63;5001482;28;20030;-75
2022/10/05 04:47:23;;;;;;;17.73;9.50;;;;;;;12.71;100.00;101583.28;5000533;28;20054;-75
2022/10/05 04:50:10;;;;;;;17.40;9.13;;;;;;;12.72;100.00;101577.16;5001570;28;20049;-75
2022/10/05 04:52:57;;;;;;;12.45;9.40;;;;;;;12.73;100.00;101580.63;5012956;28;20037;-75
2022/10/05 04:55:28;;;;;;;15.85;8.90;;;;;;;12.73;100.00;101581.50;5011333;28;20046;-75
2022/10/05 04:58:28;;;;;;;13.68;8.63;;;;;;;12.73;100.00;101573.66;5013608;28;20021;-75
2022/10/05 05:01:19;;;;;;;9.85;8.07;;;;;;;12.75;100.00;101571.88;5012657;28;20052;-75
2022/10/05 05:04:03;;;;;;;15.88;8.55;;;;;;;12.76;100.00;101573.59;5003893;28;20033;-75
2022/10/05 05:06:46;;;;;;;10.98;8.25;;;;;;;12.73;100.00;101573.66;5012562;28;20025;-75
2022/10/05 05:09:49;;;;;;;11.00;6.90;;;;;;;12.75;100.00;101579.72;5012472;28;20037;-75
2022/10/05 05:12:17;;;;;;;9.82;7.05;;;;;;;12.76;100.00;101572.72;5003982;28;20044;-75
2022/10/05 05:14:54;;;;;;;11.98;7.32;;;;;;;12.77;100.00;101571.81;5011576;28;20088;-75
2022/10/05 05:17:28;;;;;;;14.98;7.40;;;;;;;12.76;100.00;101573.59;5012364;28;20025;-75
2022/10/05 05:20:16;;;;;;;9.80;7.32;;;;;;;12.65;100.00;101552.00;5012571;28;20069;-75
2022/10/05 05:22:53;;;;;;;11.88;6.68;;;;;;;12.75;100.00;101569.25;5011950;28;20080;-75
2022/10/05 05:25:35;;;;;;;9.60;6.65;;;;;;;12.76;100.00;101570.13;5004563;28;20355;-74
2022/10/05 05:28:22;;;;;;;11.23;7.03;;;;;;;12.71;100.00;101558.88;5012122;28;20040;-75
2022/10/05 05:31:04;;;;;;;11.07;6.40;;;;;;;12.71;100.00;101557.09;5011930;28;20080;-75
2022/10/05 05:33:53;;;;;;;11.55;7.07;;;;;;;12.76;100.00;101568.34;5012316;28;20033;-74
2022/10/05 05:36:28;;;;;;;10.93;6.82;;;;;;;12.77;100.00;101563.97;5012643;28;20065;-74
2022/10/05 05:39:17;;;;;;;11.50;7.18;;;;;;;12.74;100.00;101551.81;5012671;28;20080;-74
2022/10/05 05:41:58;;;;;;;10.93;6.95;;;;;;;12.75;100.00;101569.25;5012388;28;20477;-75
2022/10/05 05:44:40;;;;;;;10.48;6.75;;;;;;;12.73;100.00;101555.34;5010591;28;20041;-74
2022/10/05 05:47:17;;;;;;;9.68;6.45;;;;;;;12.70;100.00;101551.94;4999560;28;20105;-74
2022/10/05 05:50:11;;;;;;;9.32;6.28;;;;;;;12.74;100.00;101554.44;4998769;28;20034;-74
2022/10/05 05:52:45;;;;;;;9.93;6.22;;;;;;;12.73;100.00;101547.47;5011690;28;20136;-74
2022/10/05 05:55:27;;;;;;;8.57;5.88;;;;;;;12.70;100.00;101539.69;5012578;28;20025;-75
2022/10/05 05:57:59;;;;;;;8.93;5.35;;;;;;;12.72;100.00;101543.16;5010399;28;20088;-75
2022/10/05 06:00:39;;;;;;;10.93;6.50;;;;;;;12.76;100.00;101552.66;5010339;28;20049;-75
2022/10/05 06:03:15;;;;;;;8.48;5.95;;;;;;;12.77;100.00;101546.53;5012642;28;20018;-74
2022/10/05 06:05:48;;;;;;;8.45;6.05;;;;;;;12.75;100.00;101540.47;5011170;28;20029;-75
2022/10/05 06:08:25;;;;;;;7.10;5.80;;;;;;;12.81;100.00;101557.78;5012350;28;20026;-74
2022/10/05 06:11:17;;;;;;;7.32;5.03;;;;;;;12.83;100.00;101556.00;5012264;28;20060;-74
2022/10/05 06:13:42;;;;;;;7.65;5.22;;;;;;;12.82;100.00;101544.69;5008568;28;20060;-75
2022/10/05 06:16:21;;;;;;;8.00;5.32;;;;;;;12.86;100.00;101548.94;5013224;28;20525;-75
2022/10/05 06:18:55;;;;;;;6.30;4.97;;;;;;;12.83;100.00;101535.91;5014822;28;20029;-74
2022/10/05 06:21:41;;;;;;;7.13;5.20;;;;;;;12.90;100.00;101547.13;5008237;28;20529;-74
2022/10/05 06:24:17;;;;;;;7.53;5.30;;;;;;;12.80;100.00;101525.53;4998769;28;20030;-74
2022/10/05 06:27:03;;;;;;;9.95;5.10;;;;;;;12.89;100.00;101541.03;5008618;28;20355;-74
2022/10/05 06:30:00;;;;;;;7.43;4.80;;;;;;;12.92;100.00;101541.88;5011603;28;20084;-74
2022/10/05 06:32:33;;;;;;;8.15;5.03;;;;;;;12.92;100.00;101549.72;4982302;28;20092;-74
2022/10/05 06:35:27;;;;;;;7.13;5.03;;;;;;;12.95;100.00;101540.03;5011295;28;20466;-75
2022/10/05 06:38:08;;;;;;;;;;;;;;;13.01;100.00;101539.88;5016293;28;20022;-74
2022/10/05 06:41:13;;;;;;;9.48;5.30;;;;;;;13.00;100.00;101537.31;5009969;28;20297;-74
2022/10/05 06:43:45;;;;;;;10.27;5.38;;;;;;;13.01;100.00;101541.63;5007248;28;20038;-74
2022/10/05 06:46:45;;;;;;;10.18;5.93;;;;;;;12.98;100.00;101539.97;4993567;28;20018;-74
2022/10/05 06:49:19;;;;;;;8.50;5.40;;;;;;;13.08;100.00;101548.47;4994051;28;20038;-74
2022/10/05 06:52:18;;;;;;;9.55;5.85;;;;;;;13.08;100.00;101540.63;5007450;28;20041;-74
2022/10/05 06:55:12;;;;;;;7.65;5.47;;;;;;;13.18;100.00;101551.72;4997406;28;20104;-74
2022/10/05 06:58:04;;;;;;;7.55;5.30;;;;;;;13.24;100.00;101544.66;5007062;28;20057;-74
2022/10/05 07:00:44;;;;;;;9.30;5.82;;;;;;;13.29;100.00;101552.38;5007469;28;20144;-75
2022/10/05 07:03:38;;;;;;;10.77;5.93;;;;;;;13.32;100.00;101552.31;5009441;28;20026;-74
2022/10/05 07:06:24;;;;;;;9.33;5.47;;;;;;;13.38;100.00;101548.69;5008810;28;20490;-74
2022/10/05 07:09:15;;;;;;;9.15;5.88;;;;;;;13.42;100.00;101552.97;5013875;28;20308;-75
2022/10/05 07:11:46;;;;;;;6.15;5.38;;;;;;;13.48;100.00;101551.06;5015009;28;20256;-74
2022/10/05 07:14:30;;;;;;;9.00;5.43;;;;;;;13.57;100.00;101544.75;5015239;28;20036;-74
2022/10/05 07:17:12;;;;;;;8.13;5.88;;;;;;;13.62;100.00;101542.00;5008288;28;20026;-74
2022/10/05 07:19:48;;;;;;;6.18;4.80;;;;;;;13.70;100.00;101546.16;5014644;28;20034;-74
2022/10/05 07:22:54;;;;;;;9.60;5.63;;;;;;;13.77;100.00;101546.84;5012930;28;20038;-74
2022/10/05 07:25:25;;;;;;;9.38;5.07;;;;;;;13.82;100.00;101550.19;5014896;28;20021;-74
2022/10/05 07:28:05;;;;;;;6.63;4.80;;;;;;;13.86;100.00;101545.75;5014548;28;20034;-74
2022/10/05 07:30:38;;;;;;;7.20;4.90;;;;;;;13.95;100.00;101558.63;5012249;28;20113;-73
2022/10/05 07:33:16;;;;;;;7.65;5.00;;;;;;;13.99;100.00;101545.38;5013589;28;20490;-74
2022/10/05 07:39:04;;;;;;;10.13;5.05;;;;;;;14.12;100.00;101556.41;5015132;28;20040;-74
2022/10/05 07:41:40;;;;;;;7.35;4.50;;;;;;;14.14;100.00;101549.34;5017691;28;20100;-74
2022/10/05 07:44:34;;;;;;;9.43;5.22;;;;;;;14.23;100.00;101546.50;5006538;28;20107;-74
2022/10/05 07:47:23;;;;;;;8.75;5.18;;;;;;;14.34;100.00;101547.97;5006170;28;20041;-74
2022/10/05 07:50:19;;;;;;;9.90;4.72;;;;;;;14.39;100.00;101557.44;5006345;28;20057;-74
2022/10/05 07:52:59;;;;;;;6.65;4.72;;;;;;;14.40;100.00;101556.50;5009514;28;20045;-74
2022/10/05 07:55:46;;;;;;;7.07;4.95;;;;;;;14.27;99.73;101537.63;5005267;28;20084;-74
2022/10/05 07:58:26;;;;;;;7.70;4.93;;;;;;;14.12;100.00;101495.22;5015324;28;20029;-74
2022/10/05 08:01:03;;;;;;;8.38;4.95;;;;;;;14.48;100.00;101545.78;5016754;28;20473;-74
2022/10/05 08:03:38;;;;;;;5.57;4.13;;;;;;;14.57;100.00;101545.56;5013842;28;20030;-74
2022/10/05 08:06:10;;;;;;;6.78;4.43;;;;;;;14.62;100.00;101546.31;5013291;28;20030;-74
2022/10/05 08:08:44;;;;;;;8.10;4.55;;;;;;;14.72;99.90;101545.13;5013356;28;20021;-74
2022/10/05 08:11:17;;;;;;;4.75;4.05;;;;;;;14.81;100.00;101548.38;5014238;28;20042;-74
2022/10/05 08:13:59;;;;;;;7.22;4.50;;;;;;;14.89;98.83;101552.50;5017508;28;20049;-74
2022/10/05 08:16:29;;;;;;;6.85;3.95;;;;;;;14.97;98.06;101552.25;5012093;28;20105;-73
2022/10/05 08:19:10;;;;;;;9.18;4.75;;;;;;;14.97;98.40;101544.38;5023788;28;20406;-74
2022/10/05 08:21:40;;;;;;;4.60;3.70;;;;;;;15.06;97.16;101544.09;5017770;28;20033;-74
2022/10/05 08:24:40;;;;;;;8.65;4.47;;;;;;;15.19;98.28;101534.06;5013413;28;20064;-74
2022/10/05 08:27:05;;;;;;;6.30;4.18;;;;;;;15.22;94.99;101526.94;5000469;28;20053;-74
2022/10/05 08:29:38;;;;;;;5.33;3.87;;;;;;;15.30;95.81;101531.09;5012830;28;20068;-74
2022/10/05 08:32:11;;;;;;;29.45;4.30;;;;;;;15.38;94.72;101529.09;5014751;28;20285;-74
2022/10/05 08:34:44;;;;;;;;;;;;;;;15.49;96.87;101521.72;5015732;28;20025;-74
2022/10/05 08:37:20;;;;;;;11.27;4.43;;;;;;;15.54;95.31;101527.69;5012037;28;19940;-74
2022/10/05 08:40:18;;;;;;;6.38;4.13;;;;;;;15.61;94.62;101523.94;5004610;28;20431;-74
2022/10/05 08:43:04;;;;;;;5.93;3.50;;;;;;;15.67;93.72;101523.75;4970193;28;20054;-74
2022/10/05 08:46:03;;;;;;;5.63;3.97;;;;;;;15.76;93.67;101519.09;5011858;28;20497;-74
2022/10/05 08:48:47;;;;;;;7.90;3.88;;;;;;;15.73;93.18;101514.81;5005342;28;20483;-74
2022/10/05 08:51:21;;;;;;;;;;;;;;;15.86;95.73;101515.25;5006358;28;20041;-74
2022/10/05 08:54:24;;;;;;;6.78;3.67;;;;;;;15.88;94.10;101516.03;5004458;28;19921;-74
2022/10/05 08:56:54;;;;;;;8.25;3.83;;;;;;;15.97;91.88;101512.25;5009524;28;20482;-74
2022/10/05 08:59:48;;;;;;;5.03;3.67;;;;;;;16.02;92.54;101511.19;5002527;28;20069;-74
2022/10/05 09:02:55;;;;;;;5.32;3.70;;;;;;;16.07;92.37;101503.97;5007200;28;20033;-74
2022/10/05 09:05:44;;;;;;;6.35;3.60;;;;;;;16.16;91.81;101494.91;4958251;28;20035;-74
2022/10/05 09:08:34;;;;;;;7.75;3.80;;;;;;;16.31;91.17;101501.34;5001882;28;20034;-74
2022/10/05 09:11:05;;;;;;;5.45;3.40;;;;;;;16.40;89.68;101503.66;5013350;28;20065;-74
2022/10/05 09:13:49;;;;;;;8.35;3.35;;;;;;;16.52;91.06;101507.59;5009031;28;20075;-74
2022/10/05 09:16:21;;;;;;;;;;;;;;;16.64;92.75;101499.22;5012330;28;20042;-74
2022/10/05 09:19:26;;;;;;;6.18;3.28;;;;;;;16.65;88.89;101505.38;5013214;28;20395;-74
2022/10/05 09:21:55;;;;;;;5.60;3.38;;;;;;;16.71;87.66;101495.47;5025972;28;20040;-74
2022/10/05 09:24:42;;;;;;;5.00;3.40;;;;;;;16.74;87.83;101483.94;5011103;28;20053;-74
2022/10/05 09:27:22;;;;;;;6.18;3.50;;;;;;;16.76;88.11;101497.94;5006587;28;20038;-74
2022/10/05 09:29:59;;;;;;;7.63;3.63;;;;;;;16.85;87.20;101505.47;5011188;28;20026;-74
2022/10/05 09:32:51;;;;;;;6.20;3.30;;;;;;;16.87;87.16;101501.00;5012032;28;20096;-73
2022/10/05 09:35:22;;;;;;;5.70;3.78;;;;;;;16.95;85.31;101500.72;5010865;28;20041;-74
2022/10/05 09:37:47;;;;;;;5.00;3.40;;;;;;;17.00;84.75;101502.25;5012513;28;20172;-74
2022/10/05 09:40:46;;;;;;;6.80;3.50;;;;;;;17.06;86.46;101501.97;5012638;28;20526;-74
2022/10/05 09:43:23;;;;;;;5.78;3.28;;;;;;;17.03;84.46;101496.00;5011923;28;20343;-74
2022/10/05 09:46:24;;;;;;;5.82;3.72;;;;;;;16.99;84.25;101475.97;5001406;28;20037;-74
2022/10/05 09:49:02;;;;;;;5.13;3.47;;;;;;;17.04;83.72;101485.41;5003060;28;20045;-76
2022/10/05 09:51:45;;;;;;;6.18;3.67;;;;;;;17.04;84.96;101477.50;4999146;28;20148;-75
2022/10/05 09:54:32;;;;;;;4.97;3.42;;;;;;;17.17;84.52;101477.00;5007727;28;20121;-75
2022/10/05 09:57:07;;;;;;;6.90;3.35;;;;;;;17.19;83.63;101475.16;5008251;28;20387;-74
2022/10/05 10:00:11;;;;;;;7.38;3.15;;;;;;;17.28;85.02;101466.88;5005449;28;20084;-74
2022/10/05 10:03:13;;;;;;;3.63;3.15;;;;;;;17.44;82.93;101467.09;4993590;28;20082;-74
2022/10/05 10:06:09;;;;;;;6.57;3.35;;;;;;;17.54;84.35;101458.72;5010522;28;20042;-74
2022/10/05 10:09:12;;;;;;;7.57;2.97;;;;;;;17.62;83.30;101457.53;5000376;28;20065;-74
2022/10/05 10:11:50;;;;;;;6.25;3.22;;;;;;;17.69;83.08;101453.69;5008613;28;20046;-75
2022/10/05 10:14:53;;;;;;;5.97;3.42;;;;;;;17.81;83.06;101455.00;5007958;28;20030;-75
2022/10/05 10:17:29;;;;;;;8.35;3.30;;;;;;;17.90;83.17;101446.69;4995961;28;20109;-74
2022/10/05 10:20:18;;;;;;;7.20;3.10;;;;;;;17.94;80.03;101446.47;5009063;28;20030;-74
2022/10/05 10:23:06;;;;;;;3.88;3.00;;;;;;;17.99;80.78;101436.56;5002383;28;20030;-74
2022/10/05 10:25:51;;;;;;;4.90;3.08;;;;;;;18.15;80.97;101444.66;5009603;28;20037;-74
2022/10/05 10:28:34;;;;;;;3.80;2.78;;;;;;;18.14;81.52;101439.44;5008806;28;20417;-74
2022/10/05 10:31:20;;;;;;;7.53;3.20;;;;;;;18.19;80.67;101440.94;5002871;28;20401;-74
2022/10/05 10:34:15;;;;;;;4.53;2.70;;;;;;;18.29;81.27;101430.81;5005550;28;20104;-74
2022/10/05 10:37:06;;;;;;;4.03;3.00;;;;;;;18.41;81.94;101427.63;5009725;28;20359;-77
2022/10/05 10:39:50;;;;;;;8.32;3.28;;;;;;;18.50;80.50;101418.38;4973722;28;20034;-75
2022/10/05 10:42:49;;;;;;;5.63;3.35;;;;;;;18.65;79.56;101419.47;5015582;28;20429;-75
2022/10/05 10:46:19;;;;;;;6.95;2.88;;;;;;;18.64;79.14;101428.31;5011984;28;20029;-75
2022/10/05 10:48:53;;;;;;;9.30;3.00;;;;;;;18.79;78.95;101410.88;4942120;29;20051;-74
2022/10/05 10:51:38;;;;;;;7.88;3.17;;;;;;;18.95;78.35;101417.13;4932027;29;20641;-75
2022/10/05 10:54:18;;;;;;;6.65;2.75;;;;;;;18.95;76.03;101417.97;4999764;28;20054;-75
2022/10/05 10:56:58;;;;;;;11.77;3.28;;;;;;;18.83;77.60;101407.16;5015991;28;20041;-75
2022/10/05 10:59:41;;;;;;;6.55;2.88;;;;;;;18.89;78.58;101409.50;5014959;28;20041;-75
2022/10/05 11:02:55;;;;;;;5.43;2.65;;;;;;;19.04;77.92;101407.91;5014027;28;20025;-74
2022/10/05 11:05:47;;;;;;;5.13;2.38;;;;;;;19.04;77.87;101394.69;4971466;28;20034;-75
2022/10/05 11:08:25;;;;;;;3.80;2.70;;;;;;;19.00;75.50;101398.41;5014392;28;20026;-75
2022/10/05 11:11:02;;;;;;;10.82;2.50;;;;;;;18.84;77.21;101385.97;5015598;28;20392;-75
2022/10/05 11:14:01;;;;;;;3.70;2.30;;;;;;;18.97;78.02;101398.56;5001210;28;20374;-75
2022/10/05 11:16:44;;;;;;;5.65;2.63;;;;;;;19.09;75.06;101398.78;5009401;28;20072;-75
2022/10/05 11:19:27;;;;;;;6.47;2.70;;;;;;;19.20;76.34;101386.84;5015338;28;20137;-75
2022/10/05 11:22:21;;;;;;;5.72;2.50;;;;;;;19.26;75.69;101383.88;5016835;28;20030;-75
2022/10/05 11:25:13;;;;;;;5.55;2.30;;;;;;;19.48;75.39;101387.13;5019746;28;20034;-74
2022/10/05 11:27:59;;;;;;;5.47;2.20;;;;;;;19.65;77.78;101375.69;5014529;28;20381;-75
2022/10/05 11:31:08;;;;;;;9.82;2.40;;;;;;;19.75;76.21;101376.03;5013155;28;20032;-75
2022/10/05 11:33:55;;;;;;;3.75;2.20;;;;;;;19.66;74.36;101380.06;5011633;28;20490;-75
2022/10/05 11:36:50;;;;;;;10.80;2.50;;;;;;;19.67;74.79;101371.19;5013360;28;20045;-76
2022/10/05 11:39:36;;;;;;;16.35;5.45;;;;;;;19.55;75.94;101362.06;5003642;28;20057;-74
2022/10/05 11:42:02;;;;;;;11.93;4.60;;;;;;;19.77;73.82;101353.88;5012379;28;20030;-75
2022/10/05 11:44:50;;;;;;;2.80;2.00;;;;;;;20.22;73.73;101344.34;5013616;28;20022;-75
2022/10/05 11:47:36;;;;;;;6.88;3.30;;;;;;;20.35;72.13;101342.72;5013026;28;20300;-73
2022/10/05 11:50:33;;;;;;;4.90;2.05;;;;;;;20.60;73.01;101340.50;5003723;28;20458;-74
2022/10/05 11:53:18;;;;;;;4.28;2.10;;;;;;;20.83;71.26;101331.22;5020531;28;20018;-74
2022/10/05 11:55:56;;;;;;;5.90;2.72;;;;;;;21.33;70.34;101327.34;5013993;28;20034;-74
2022/10/05 11:58:55;;;;;;;3.00;2.03;;;;;;;21.69;69.46;101325.13;5012639;28;20022;-77
2022/10/05 12:01:33;;;;;;;3.90;2.22;;;;;;;21.90;67.41;101324.69;5011771;28;20088;-75
2022/10/05 12:04:14;;;;;;;6.07;2.15;;;;;;;21.64;68.40;101321.88;5013027;28;20025;-77
2022/10/05 12:07:07;;;;;;;6.15;2.20;;;;;;;21.98;66.25;101319.78;5000874;28;20029;-77
2022/10/05 12:10:13;;;;;;;7.73;2.10;;;;;;;22.56;63.08;101300.06;5013040;28;20083;-77
2022/10/05 12:12:59;;;;;;;5.72;2.30;;;;;;;22.76;62.47;101295.22;5014057;28;20033;-77
2022/10/05 12:15:43;;;;;;;4.43;2.00;;;;;;;22.82;61.70;101297.44;4994240;28;20077;-77
2022/10/05 12:18:22;;;;;;;3.22;1.92;;;;;;;22.43;64.38;101288.53;5010952;28;20042;-75
2022/10/05 12:20:57;;;;;;;6.00;2.08;;;;;;;22.37;62.33;101278.34;5012492;28;20110;-75
2022/10/05 12:23:23;;;;;;;3.33;1.98;;;;;;;22.48;60.66;101291.75;5009162;28;20031;-75
2022/10/05 12:26:09;;;;;;;3.80;1.90;;;;;;;22.55;62.58;101286.88;5003940;28;20080;-75
2022/10/05 12:28:52;;;;;;;4.18;1.95;;;;;;;22.06;63.64;101280.28;5013576;28;20277;-75
2022/10/05 12:31:34;;;;;;;3.45;1.88;;;;;;;21.60;64.59;101282.38;5011867;28;20018;-74